sensor_id;sensor_type;location;lat;lon;timestamp;temperature;humidity
435;DHT22;204;48.942;9.256;2023-08-21T00:00:36;24.30;1.00
435;DHT22;204;48.942;9.256;2023-08-21T00:03:02;24.30;1.00
435;DHT22;204;48.942;9.256;2023-08-21T00:05:27;24.30;1.00
435;DHT22;204;48.942;9.256;2023-08-21T00:07:53;24.30;1.00
435;DHT22;204;48.942;9.256;2023-08-21T00:10:18;24.20;1.00
435;DHT22;204;48.942;9.256;2023-08-21T00:12:44;24.20;1.00
435;DHT22;204;48.942;9.256;2023-08-21T00:15:10;24.10;1.00
435;DHT22;204;48.942;9.256;2023-08-21T00:17:35;24.10;1.00
435;DHT22;204;48.942;9.256;2023-08-21T00:20:01;24.10;1.00
435;DHT22;204;48.942;9.256;2023-08-21T00:22:28;24.10;1.00
435;DHT22;204;48.942;9.256;2023-08-21T00:24:53;24.10;1.00
435;DHT22;204;48.942;9.256;2023-08-21T00:27:19;24.10;1.00
435;DHT22;204;48.942;9.256;2023-08-21T00:29:44;24.10;1.00
435;DHT22;204;48.942;9.256;2023-08-21T00:32:10;24.00;1.00
435;DHT22;204;48.942;9.256;2023-08-21T00:34:37;24.00;1.00
435;DHT22;204;48.942;9.256;2023-08-21T00:37:03;24.00;1.00
435;DHT22;204;48.942;9.256;2023-08-21T00:39:29;23.90;1.00
435;DHT22;204;48.942;9.256;2023-08-21T00:41:55;23.90;1.00
435;DHT22;204;48.942;9.256;2023-08-21T00:44:20;23.90;1.00
435;DHT22;204;48.942;9.256;2023-08-21T00:46:46;23.80;1.00
435;DHT22;204;48.942;9.256;2023-08-21T00:49:12;23.80;1.00
435;DHT22;204;48.942;9.256;2023-08-21T00:51:37;23.80;1.00
435;DHT22;204;48.942;9.256;2023-08-21T00:54:03;23.80;1.00
435;DHT22;204;48.942;9.256;2023-08-21T00:56:29;23.70;1.00
435;DHT22;204;48.942;9.256;2023-08-21T00:58:55;23.70;1.00
435;DHT22;204;48.942;9.256;2023-08-21T01:01:24;23.70;1.00
435;DHT22;204;48.942;9.256;2023-08-21T01:03:51;23.70;1.00
435;DHT22;204;48.942;9.256;2023-08-21T01:06:16;23.60;1.00
435;DHT22;204;48.942;9.256;2023-08-21T01:09:08;23.60;1.00
435;DHT22;204;48.942;9.256;2023-08-21T01:15:16;23.60;1.00
435;DHT22;204;48.942;9.256;2023-08-21T01:17:23;23.50;1.00
435;DHT22;204;48.942;9.256;2023-08-21T01:19:50;23.50;1.00
435;DHT22;204;48.942;9.256;2023-08-21T01:22:16;23.50;1.00
435;DHT22;204;48.942;9.256;2023-08-21T01:24:42;23.40;1.00
435;DHT22;204;48.942;9.256;2023-08-21T01:27:09;23.40;1.00
435;DHT22;204;48.942;9.256;2023-08-21T01:29:35;23.40;1.00
435;DHT22;204;48.942;9.256;2023-08-21T01:32:09;23.30;1.00
435;DHT22;204;48.942;9.256;2023-08-21T01:34:37;23.30;1.00
435;DHT22;204;48.942;9.256;2023-08-21T01:37:04;23.30;1.00
435;DHT22;204;48.942;9.256;2023-08-21T01:39:30;23.30;1.00
435;DHT22;204;48.942;9.256;2023-08-21T01:41:57;23.30;1.00
435;DHT22;204;48.942;9.256;2023-08-21T01:44:23;23.20;1.00
435;DHT22;204;48.942;9.256;2023-08-21T01:46:48;23.20;1.00
435;DHT22;204;48.942;9.256;2023-08-21T01:49:14;23.20;1.00
435;DHT22;204;48.942;9.256;2023-08-21T01:51:39;23.20;1.00
435;DHT22;204;48.942;9.256;2023-08-21T01:54:05;23.10;1.00
435;DHT22;204;48.942;9.256;2023-08-21T01:56:30;23.10;1.00
435;DHT22;204;48.942;9.256;2023-08-21T01:58:56;23.10;1.00
435;DHT22;204;48.942;9.256;2023-08-21T02:01:22;23.10;1.00
435;DHT22;204;48.942;9.256;2023-08-21T02:03:48;23.00;1.00
435;DHT22;204;48.942;9.256;2023-08-21T02:06:14;23.00;1.00
435;DHT22;204;48.942;9.256;2023-08-21T02:08:40;23.00;1.00
435;DHT22;204;48.942;9.256;2023-08-21T02:11:06;22.90;1.00
435;DHT22;204;48.942;9.256;2023-08-21T02:13:31;22.90;1.00
435;DHT22;204;48.942;9.256;2023-08-21T02:15:58;22.90;1.00
435;DHT22;204;48.942;9.256;2023-08-21T02:18:23;22.90;1.00
435;DHT22;204;48.942;9.256;2023-08-21T02:20:49;22.80;1.00
435;DHT22;204;48.942;9.256;2023-08-21T02:23:15;22.80;1.00
435;DHT22;204;48.942;9.256;2023-08-21T02:25:41;22.80;1.00
435;DHT22;204;48.942;9.256;2023-08-21T02:28:06;22.80;1.00
435;DHT22;204;48.942;9.256;2023-08-21T02:30:32;22.70;1.00
435;DHT22;204;48.942;9.256;2023-08-21T02:32:58;22.70;1.00
435;DHT22;204;48.942;9.256;2023-08-21T02:35:23;22.70;1.00
435;DHT22;204;48.942;9.256;2023-08-21T02:37:49;22.70;1.00
435;DHT22;204;48.942;9.256;2023-08-21T02:40:15;22.60;1.00
435;DHT22;204;48.942;9.256;2023-08-21T02:42:41;22.60;1.00
435;DHT22;204;48.942;9.256;2023-08-21T02:45:07;22.60;1.00
435;DHT22;204;48.942;9.256;2023-08-21T02:47:39;22.60;1.00
435;DHT22;204;48.942;9.256;2023-08-21T02:50:06;22.50;1.00
435;DHT22;204;48.942;9.256;2023-08-21T02:52:33;22.50;1.00
435;DHT22;204;48.942;9.256;2023-08-21T02:54:59;22.50;1.00
435;DHT22;204;48.942;9.256;2023-08-21T02:57:26;22.50;1.00
435;DHT22;204;48.942;9.256;2023-08-21T02:59:52;22.40;1.00
435;DHT22;204;48.942;9.256;2023-08-21T03:02:18;22.40;1.00
435;DHT22;204;48.942;9.256;2023-08-21T03:04:44;22.40;1.00
435;DHT22;204;48.942;9.256;2023-08-21T03:07:09;22.40;1.00
435;DHT22;204;48.942;9.256;2023-08-21T03:09:36;22.40;1.00
435;DHT22;204;48.942;9.256;2023-08-21T03:12:02;22.40;1.00
435;DHT22;204;48.942;9.256;2023-08-21T03:14:27;22.40;1.00
435;DHT22;204;48.942;9.256;2023-08-21T03:16:53;22.30;1.00
435;DHT22;204;48.942;9.256;2023-08-21T03:19:18;22.30;1.00
435;DHT22;204;48.942;9.256;2023-08-21T03:21:44;22.30;1.00
435;DHT22;204;48.942;9.256;2023-08-21T03:24:09;22.30;1.00
435;DHT22;204;48.942;9.256;2023-08-21T03:26:35;22.30;1.00
435;DHT22;204;48.942;9.256;2023-08-21T03:29:01;22.30;1.00
435;DHT22;204;48.942;9.256;2023-08-21T03:31:27;22.20;1.00
435;DHT22;204;48.942;9.256;2023-08-21T03:33:52;22.20;1.00
435;DHT22;204;48.942;9.256;2023-08-21T03:36:18;22.20;1.00
435;DHT22;204;48.942;9.256;2023-08-21T03:38:44;22.20;1.00
435;DHT22;204;48.942;9.256;2023-08-21T03:41:10;22.20;1.00
435;DHT22;204;48.942;9.256;2023-08-21T03:43:36;22.20;1.00
435;DHT22;204;48.942;9.256;2023-08-21T03:46:01;22.20;1.00
435;DHT22;204;48.942;9.256;2023-08-21T03:48:27;22.10;1.00
435;DHT22;204;48.942;9.256;2023-08-21T03:50:52;22.10;1.00
435;DHT22;204;48.942;9.256;2023-08-21T03:53:18;22.10;1.00
435;DHT22;204;48.942;9.256;2023-08-21T03:55:44;22.10;1.00
435;DHT22;204;48.942;9.256;2023-08-21T03:58:09;22.10;1.00
435;DHT22;204;48.942;9.256;2023-08-21T04:00:35;22.00;1.00
435;DHT22;204;48.942;9.256;2023-08-21T04:03:01;22.00;1.00
435;DHT22;204;48.942;9.256;2023-08-21T04:05:26;22.00;1.00
435;DHT22;204;48.942;9.256;2023-08-21T04:07:52;22.00;1.00
435;DHT22;204;48.942;9.256;2023-08-21T04:10:17;22.00;1.00
435;DHT22;204;48.942;9.256;2023-08-21T04:12:43;22.00;1.00
435;DHT22;204;48.942;9.256;2023-08-21T04:15:09;21.90;1.00
435;DHT22;204;48.942;9.256;2023-08-21T04:17:35;21.90;1.00
435;DHT22;204;48.942;9.256;2023-08-21T04:20:01;21.90;1.00
435;DHT22;204;48.942;9.256;2023-08-21T04:22:26;21.90;1.00
435;DHT22;204;48.942;9.256;2023-08-21T04:24:52;21.90;1.00
435;DHT22;204;48.942;9.256;2023-08-21T04:27:17;21.90;1.00
435;DHT22;204;48.942;9.256;2023-08-21T04:29:43;21.90;1.00
435;DHT22;204;48.942;9.256;2023-08-21T04:32:08;21.90;1.00
435;DHT22;204;48.942;9.256;2023-08-21T04:34:34;21.90;1.00
435;DHT22;204;48.942;9.256;2023-08-21T04:37:00;21.90;1.00
435;DHT22;204;48.942;9.256;2023-08-21T04:39:25;21.80;1.00
435;DHT22;204;48.942;9.256;2023-08-21T04:41:51;21.90;1.00
435;DHT22;204;48.942;9.256;2023-08-21T04:44:17;21.90;1.00
435;DHT22;204;48.942;9.256;2023-08-21T04:46:42;21.90;1.00
435;DHT22;204;48.942;9.256;2023-08-21T04:49:08;21.90;1.00
435;DHT22;204;48.942;9.256;2023-08-21T04:51:34;21.90;1.00
435;DHT22;204;48.942;9.256;2023-08-21T04:54:00;22.00;1.00
435;DHT22;204;48.942;9.256;2023-08-21T04:56:26;22.10;1.00
435;DHT22;204;48.942;9.256;2023-08-21T04:58:52;22.20;1.00
435;DHT22;204;48.942;9.256;2023-08-21T05:01:18;22.20;1.00
435;DHT22;204;48.942;9.256;2023-08-21T05:03:43;22.30;1.00
435;DHT22;204;48.942;9.256;2023-08-21T05:06:09;22.40;1.00
435;DHT22;204;48.942;9.256;2023-08-21T05:08:35;22.50;1.00
435;DHT22;204;48.942;9.256;2023-08-21T05:11:01;22.50;1.00
435;DHT22;204;48.942;9.256;2023-08-21T05:13:27;22.60;1.00
435;DHT22;204;48.942;9.256;2023-08-21T05:15:54;22.70;1.00
435;DHT22;204;48.942;9.256;2023-08-21T05:18:21;22.80;1.00
435;DHT22;204;48.942;9.256;2023-08-21T05:20:47;22.90;1.00
435;DHT22;204;48.942;9.256;2023-08-21T05:23:14;23.10;1.00
435;DHT22;204;48.942;9.256;2023-08-21T05:25:39;23.20;1.00
435;DHT22;204;48.942;9.256;2023-08-21T05:28:06;23.30;1.00
435;DHT22;204;48.942;9.256;2023-08-21T05:30:31;23.50;1.00
435;DHT22;204;48.942;9.256;2023-08-21T05:32:57;23.60;1.00
435;DHT22;204;48.942;9.256;2023-08-21T05:35:23;23.80;1.00
435;DHT22;204;48.942;9.256;2023-08-21T05:37:49;23.90;1.00
435;DHT22;204;48.942;9.256;2023-08-21T05:40:14;24.00;1.00
435;DHT22;204;48.942;9.256;2023-08-21T05:42:40;24.20;1.00
435;DHT22;204;48.942;9.256;2023-08-21T05:45:06;24.30;1.00
435;DHT22;204;48.942;9.256;2023-08-21T05:47:32;24.50;1.00
435;DHT22;204;48.942;9.256;2023-08-21T05:49:57;24.60;1.00
435;DHT22;204;48.942;9.256;2023-08-21T05:52:23;24.70;1.00
435;DHT22;204;48.942;9.256;2023-08-21T05:54:49;24.80;1.00
435;DHT22;204;48.942;9.256;2023-08-21T05:57:14;24.90;1.00
435;DHT22;204;48.942;9.256;2023-08-21T05:59:44;25.10;1.00
435;DHT22;204;48.942;9.256;2023-08-21T06:02:11;25.20;1.00
435;DHT22;204;48.942;9.256;2023-08-21T06:04:39;25.30;1.00
435;DHT22;204;48.942;9.256;2023-08-21T06:07:04;25.40;1.00
435;DHT22;204;48.942;9.256;2023-08-21T06:09:30;25.60;1.00
435;DHT22;204;48.942;9.256;2023-08-21T06:11:57;25.80;1.00
435;DHT22;204;48.942;9.256;2023-08-21T06:14:22;25.90;1.00
435;DHT22;204;48.942;9.256;2023-08-21T06:16:58;26.00;1.00
435;DHT22;204;48.942;9.256;2023-08-21T06:19:24;26.20;1.00
435;DHT22;204;48.942;9.256;2023-08-21T06:21:49;26.20;1.00
435;DHT22;204;48.942;9.256;2023-08-21T06:24:15;26.20;1.00
435;DHT22;204;48.942;9.256;2023-08-21T06:26:41;26.30;99.90
435;DHT22;204;48.942;9.256;2023-08-21T06:29:07;26.30;99.90
435;DHT22;204;48.942;9.256;2023-08-21T06:31:32;26.30;99.90
435;DHT22;204;48.942;9.256;2023-08-21T06:33:58;26.40;99.90
435;DHT22;204;48.942;9.256;2023-08-21T06:36:24;26.50;99.90
435;DHT22;204;48.942;9.256;2023-08-21T06:38:49;26.70;99.90
435;DHT22;204;48.942;9.256;2023-08-21T06:41:15;26.80;99.90
435;DHT22;204;48.942;9.256;2023-08-21T06:43:40;27.00;99.90
435;DHT22;204;48.942;9.256;2023-08-21T06:46:07;27.10;99.90
435;DHT22;204;48.942;9.256;2023-08-21T06:48:33;27.20;99.90
435;DHT22;204;48.942;9.256;2023-08-21T06:50:59;27.30;99.90
435;DHT22;204;48.942;9.256;2023-08-21T06:53:25;27.20;99.90
435;DHT22;204;48.942;9.256;2023-08-21T06:55:50;27.30;99.90
435;DHT22;204;48.942;9.256;2023-08-21T06:58:16;27.30;99.90
435;DHT22;204;48.942;9.256;2023-08-21T07:00:41;27.30;99.90
435;DHT22;204;48.942;9.256;2023-08-21T07:03:07;27.40;99.90
435;DHT22;204;48.942;9.256;2023-08-21T07:05:33;27.50;99.90
435;DHT22;204;48.942;9.256;2023-08-21T07:07:59;27.50;99.90
435;DHT22;204;48.942;9.256;2023-08-21T07:10:25;27.60;99.90
435;DHT22;204;48.942;9.256;2023-08-21T07:12:51;27.70;99.90
435;DHT22;204;48.942;9.256;2023-08-21T07:15:16;27.70;99.90
435;DHT22;204;48.942;9.256;2023-08-21T07:17:42;27.80;99.90
435;DHT22;204;48.942;9.256;2023-08-21T07:20:08;27.80;99.90
435;DHT22;204;48.942;9.256;2023-08-21T07:22:33;27.80;99.90
435;DHT22;204;48.942;9.256;2023-08-21T07:24:59;27.90;99.90
435;DHT22;204;48.942;9.256;2023-08-21T07:27:29;28.00;99.90
435;DHT22;204;48.942;9.256;2023-08-21T07:29:55;28.20;99.90
435;DHT22;204;48.942;9.256;2023-08-21T07:32:20;28.20;99.90
435;DHT22;204;48.942;9.256;2023-08-21T07:34:46;28.30;99.90
435;DHT22;204;48.942;9.256;2023-08-21T07:37:11;28.40;99.90
435;DHT22;204;48.942;9.256;2023-08-21T07:39:37;28.50;99.90
435;DHT22;204;48.942;9.256;2023-08-21T07:42:03;28.60;99.90
435;DHT22;204;48.942;9.256;2023-08-21T07:44:28;28.70;99.90
435;DHT22;204;48.942;9.256;2023-08-21T07:46:54;28.90;99.90
435;DHT22;204;48.942;9.256;2023-08-21T07:49:19;28.90;99.90
435;DHT22;204;48.942;9.256;2023-08-21T07:51:45;29.00;99.90
435;DHT22;204;48.942;9.256;2023-08-21T07:54:11;29.10;99.90
435;DHT22;204;48.942;9.256;2023-08-21T07:56:37;29.20;99.90
435;DHT22;204;48.942;9.256;2023-08-21T07:59:05;29.30;99.90
435;DHT22;204;48.942;9.256;2023-08-21T08:01:30;29.30;99.90
435;DHT22;204;48.942;9.256;2023-08-21T08:03:56;29.40;99.90
435;DHT22;204;48.942;9.256;2023-08-21T08:06:21;29.40;99.90
435;DHT22;204;48.942;9.256;2023-08-21T08:08:48;29.40;99.90
435;DHT22;204;48.942;9.256;2023-08-21T08:11:14;29.50;99.90
435;DHT22;204;48.942;9.256;2023-08-21T08:13:39;29.60;99.90
435;DHT22;204;48.942;9.256;2023-08-21T08:16:05;29.60;99.90
435;DHT22;204;48.942;9.256;2023-08-21T08:18:30;29.70;99.90
435;DHT22;204;48.942;9.256;2023-08-21T08:20:56;29.80;99.90
435;DHT22;204;48.942;9.256;2023-08-21T08:23:21;29.90;99.90
435;DHT22;204;48.942;9.256;2023-08-21T08:25:48;30.00;99.90
435;DHT22;204;48.942;9.256;2023-08-21T08:28:14;30.00;99.90
435;DHT22;204;48.942;9.256;2023-08-21T08:30:39;30.20;99.90
435;DHT22;204;48.942;9.256;2023-08-21T08:33:05;30.30;99.90
435;DHT22;204;48.942;9.256;2023-08-21T08:35:31;30.40;99.90
435;DHT22;204;48.942;9.256;2023-08-21T08:37:57;30.60;99.90
435;DHT22;204;48.942;9.256;2023-08-21T08:40:22;30.70;99.90
435;DHT22;204;48.942;9.256;2023-08-21T08:42:48;30.90;99.90
435;DHT22;204;48.942;9.256;2023-08-21T08:45:14;31.10;99.90
435;DHT22;204;48.942;9.256;2023-08-21T08:47:40;31.20;99.90
435;DHT22;204;48.942;9.256;2023-08-21T08:50:07;31.30;99.90
435;DHT22;204;48.942;9.256;2023-08-21T08:52:38;31.30;99.90
435;DHT22;204;48.942;9.256;2023-08-21T08:55:05;31.40;99.90
435;DHT22;204;48.942;9.256;2023-08-21T08:57:32;31.40;99.90
435;DHT22;204;48.942;9.256;2023-08-21T08:59:59;31.50;99.90
435;DHT22;204;48.942;9.256;2023-08-21T09:02:25;31.70;99.90
435;DHT22;204;48.942;9.256;2023-08-21T09:04:52;31.70;99.90
435;DHT22;204;48.942;9.256;2023-08-21T09:07:17;31.80;99.90
435;DHT22;204;48.942;9.256;2023-08-21T09:09:46;31.80;99.90
435;DHT22;204;48.942;9.256;2023-08-21T09:12:13;31.90;99.90
435;DHT22;204;48.942;9.256;2023-08-21T09:14:40;31.90;99.90
435;DHT22;204;48.942;9.256;2023-08-21T09:17:06;32.00;99.90
435;DHT22;204;48.942;9.256;2023-08-21T09:19:32;32.10;99.90
435;DHT22;204;48.942;9.256;2023-08-21T09:21:58;32.20;99.90
435;DHT22;204;48.942;9.256;2023-08-21T09:24:23;32.30;99.90
435;DHT22;204;48.942;9.256;2023-08-21T09:26:50;32.40;99.90
435;DHT22;204;48.942;9.256;2023-08-21T09:29:16;32.50;99.90
435;DHT22;204;48.942;9.256;2023-08-21T09:31:42;32.50;99.90
435;DHT22;204;48.942;9.256;2023-08-21T09:34:10;32.40;99.90
435;DHT22;204;48.942;9.256;2023-08-21T09:36:38;32.40;99.90
435;DHT22;204;48.942;9.256;2023-08-21T09:39:04;32.40;99.90
435;DHT22;204;48.942;9.256;2023-08-21T09:41:31;32.40;99.90
435;DHT22;204;48.942;9.256;2023-08-21T09:44:01;32.40;99.90
435;DHT22;204;48.942;9.256;2023-08-21T09:46:27;32.40;99.90
435;DHT22;204;48.942;9.256;2023-08-21T09:48:53;32.40;99.90
435;DHT22;204;48.942;9.256;2023-08-21T09:51:20;32.50;99.90
435;DHT22;204;48.942;9.256;2023-08-21T09:53:48;32.50;99.90
435;DHT22;204;48.942;9.256;2023-08-21T09:56:14;32.60;99.90
435;DHT22;204;48.942;9.256;2023-08-21T09:58:40;32.60;99.90
435;DHT22;204;48.942;9.256;2023-08-21T10:01:07;32.80;99.90
435;DHT22;204;48.942;9.256;2023-08-21T10:03:40;32.90;99.90
435;DHT22;204;48.942;9.256;2023-08-21T10:06:07;33.00;99.90
435;DHT22;204;48.942;9.256;2023-08-21T10:08:38;33.00;99.90
435;DHT22;204;48.942;9.256;2023-08-21T10:11:08;33.10;99.90
435;DHT22;204;48.942;9.256;2023-08-21T10:13:35;33.10;99.90
435;DHT22;204;48.942;9.256;2023-08-21T10:16:02;33.20;99.90
435;DHT22;204;48.942;9.256;2023-08-21T10:18:33;33.20;99.90
435;DHT22;204;48.942;9.256;2023-08-21T10:21:19;33.30;99.90
435;DHT22;204;48.942;9.256;2023-08-21T10:23:50;33.40;99.90
435;DHT22;204;48.942;9.256;2023-08-21T10:26:19;33.50;99.90
435;DHT22;204;48.942;9.256;2023-08-21T10:28:53;33.60;99.90
435;DHT22;204;48.942;9.256;2023-08-21T10:31:41;33.60;99.90
435;DHT22;204;48.942;9.256;2023-08-21T10:34:12;33.40;99.90
435;DHT22;204;48.942;9.256;2023-08-21T10:39:25;33.10;99.90
435;DHT22;204;48.942;9.256;2023-08-21T10:42:10;33.10;99.90
435;DHT22;204;48.942;9.256;2023-08-21T10:44:53;33.20;99.90
435;DHT22;204;48.942;9.256;2023-08-21T10:49:55;33.40;99.90
435;DHT22;204;48.942;9.256;2023-08-21T10:52:26;33.50;99.90
435;DHT22;204;48.942;9.256;2023-08-21T10:54:59;33.50;99.90
435;DHT22;204;48.942;9.256;2023-08-21T10:57:26;33.60;99.90
435;DHT22;204;48.942;9.256;2023-08-21T10:59:57;33.70;99.90
435;DHT22;204;48.942;9.256;2023-08-21T11:02:24;33.80;99.90
435;DHT22;204;48.942;9.256;2023-08-21T11:04:51;33.90;99.90
435;DHT22;204;48.942;9.256;2023-08-21T11:07:17;34.00;99.90
435;DHT22;204;48.942;9.256;2023-08-21T11:09:43;34.20;99.90
435;DHT22;204;48.942;9.256;2023-08-21T11:12:13;34.10;99.90
435;DHT22;204;48.942;9.256;2023-08-21T11:14:40;34.00;99.90
435;DHT22;204;48.942;9.256;2023-08-21T11:17:07;33.80;99.90
435;DHT22;204;48.942;9.256;2023-08-21T11:19:33;33.80;99.90
435;DHT22;204;48.942;9.256;2023-08-21T11:22:00;33.80;99.90
435;DHT22;204;48.942;9.256;2023-08-21T11:24:39;33.70;99.90
435;DHT22;204;48.942;9.256;2023-08-21T11:27:05;33.60;99.90
435;DHT22;204;48.942;9.256;2023-08-21T11:29:39;33.70;99.90
435;DHT22;204;48.942;9.256;2023-08-21T11:32:15;33.80;99.90
435;DHT22;204;48.942;9.256;2023-08-21T11:34:42;33.80;99.90
435;DHT22;204;48.942;9.256;2023-08-21T11:37:12;33.90;99.90
435;DHT22;204;48.942;9.256;2023-08-21T11:42:12;34.00;99.90
435;DHT22;204;48.942;9.256;2023-08-21T11:44:51;34.10;99.90
435;DHT22;204;48.942;9.256;2023-08-21T11:47:19;34.20;99.90
435;DHT22;204;48.942;9.256;2023-08-21T11:49:46;34.40;99.90
435;DHT22;204;48.942;9.256;2023-08-21T11:52:23;34.40;99.90
435;DHT22;204;48.942;9.256;2023-08-21T11:54:53;34.40;99.90
435;DHT22;204;48.942;9.256;2023-08-21T11:57:21;34.50;99.90
435;DHT22;204;48.942;9.256;2023-08-21T11:59:54;34.60;99.90
435;DHT22;204;48.942;9.256;2023-08-21T12:02:24;34.60;99.90
435;DHT22;204;48.942;9.256;2023-08-21T12:05:04;34.60;99.90
435;DHT22;204;48.942;9.256;2023-08-21T12:07:33;34.50;99.90
435;DHT22;204;48.942;9.256;2023-08-21T12:09:59;34.40;99.90
435;DHT22;204;48.942;9.256;2023-08-21T12:12:25;34.30;99.90
435;DHT22;204;48.942;9.256;2023-08-21T12:14:50;34.30;99.90
435;DHT22;204;48.942;9.256;2023-08-21T12:17:16;34.30;99.90
435;DHT22;204;48.942;9.256;2023-08-21T12:19:42;34.30;99.90
435;DHT22;204;48.942;9.256;2023-08-21T12:22:08;34.30;99.90
435;DHT22;204;48.942;9.256;2023-08-21T12:24:34;34.30;99.90
435;DHT22;204;48.942;9.256;2023-08-21T12:27:00;34.20;99.90
435;DHT22;204;48.942;9.256;2023-08-21T12:29:26;34.30;99.90
435;DHT22;204;48.942;9.256;2023-08-21T12:31:52;34.30;99.90
435;DHT22;204;48.942;9.256;2023-08-21T12:34:17;34.20;99.90
435;DHT22;204;48.942;9.256;2023-08-21T12:36:43;34.30;99.90
435;DHT22;204;48.942;9.256;2023-08-21T12:39:09;34.40;99.90
435;DHT22;204;48.942;9.256;2023-08-21T12:41:34;34.50;99.90
435;DHT22;204;48.942;9.256;2023-08-21T12:44:00;34.70;99.90
435;DHT22;204;48.942;9.256;2023-08-21T12:46:28;34.70;99.90
435;DHT22;204;48.942;9.256;2023-08-21T12:48:55;34.80;99.90
435;DHT22;204;48.942;9.256;2023-08-21T12:51:21;34.80;99.90
435;DHT22;204;48.942;9.256;2023-08-21T12:53:46;34.80;99.90
435;DHT22;204;48.942;9.256;2023-08-21T12:56:12;34.90;99.90
435;DHT22;204;48.942;9.256;2023-08-21T12:58:38;34.90;99.90
435;DHT22;204;48.942;9.256;2023-08-21T13:01:03;35.00;99.90
435;DHT22;204;48.942;9.256;2023-08-21T13:03:30;35.00;99.90
435;DHT22;204;48.942;9.256;2023-08-21T13:05:56;35.10;99.90
435;DHT22;204;48.942;9.256;2023-08-21T13:08:21;35.10;99.90
435;DHT22;204;48.942;9.256;2023-08-21T13:10:47;35.00;99.90
435;DHT22;204;48.942;9.256;2023-08-21T13:13:13;35.00;99.90
435;DHT22;204;48.942;9.256;2023-08-21T13:15:38;34.90;99.90
435;DHT22;204;48.942;9.256;2023-08-21T13:18:04;34.80;99.90
435;DHT22;204;48.942;9.256;2023-08-21T13:20:30;34.80;99.90
435;DHT22;204;48.942;9.256;2023-08-21T13:22:55;34.80;99.90
435;DHT22;204;48.942;9.256;2023-08-21T13:25:23;34.80;99.90
435;DHT22;204;48.942;9.256;2023-08-21T13:27:50;34.80;99.90
435;DHT22;204;48.942;9.256;2023-08-21T13:30:16;34.80;99.90
435;DHT22;204;48.942;9.256;2023-08-21T13:32:43;34.80;99.90
435;DHT22;204;48.942;9.256;2023-08-21T13:35:08;34.80;99.90
435;DHT22;204;48.942;9.256;2023-08-21T13:37:35;34.80;99.90
435;DHT22;204;48.942;9.256;2023-08-21T13:40:01;34.80;99.90
435;DHT22;204;48.942;9.256;2023-08-21T13:42:34;34.80;99.90
435;DHT22;204;48.942;9.256;2023-08-21T13:45:02;34.80;99.90
435;DHT22;204;48.942;9.256;2023-08-21T13:47:29;34.80;99.90
435;DHT22;204;48.942;9.256;2023-08-21T13:49:54;34.80;99.90
435;DHT22;204;48.942;9.256;2023-08-21T13:52:20;34.70;99.90
435;DHT22;204;48.942;9.256;2023-08-21T13:54:46;34.60;99.90
435;DHT22;204;48.942;9.256;2023-08-21T13:57:11;34.60;99.90
435;DHT22;204;48.942;9.256;2023-08-21T13:59:37;34.60;99.90
435;DHT22;204;48.942;9.256;2023-08-21T14:02:02;34.60;99.90
435;DHT22;204;48.942;9.256;2023-08-21T14:04:29;34.60;99.90
435;DHT22;204;48.942;9.256;2023-08-21T14:06:55;34.60;99.90
435;DHT22;204;48.942;9.256;2023-08-21T14:09:21;34.60;99.90
435;DHT22;204;48.942;9.256;2023-08-21T14:11:46;34.60;99.90
435;DHT22;204;48.942;9.256;2023-08-21T14:14:12;34.60;99.90
435;DHT22;204;48.942;9.256;2023-08-21T14:16:37;34.60;99.90
435;DHT22;204;48.942;9.256;2023-08-21T14:19:03;34.60;99.90
435;DHT22;204;48.942;9.256;2023-08-21T14:21:28;34.50;99.90
435;DHT22;204;48.942;9.256;2023-08-21T14:23:54;34.40;99.90
435;DHT22;204;48.942;9.256;2023-08-21T14:26:20;34.40;99.90
435;DHT22;204;48.942;9.256;2023-08-21T14:28:45;34.40;99.90
435;DHT22;204;48.942;9.256;2023-08-21T14:31:16;34.30;99.90
435;DHT22;204;48.942;9.256;2023-08-21T14:33:43;34.30;99.90
435;DHT22;204;48.942;9.256;2023-08-21T14:36:08;34.30;99.90
435;DHT22;204;48.942;9.256;2023-08-21T14:38:34;34.20;99.90
435;DHT22;204;48.942;9.256;2023-08-21T14:41:00;34.10;99.90
435;DHT22;204;48.942;9.256;2023-08-21T14:43:25;34.00;99.90
435;DHT22;204;48.942;9.256;2023-08-21T14:45:51;34.00;99.90
435;DHT22;204;48.942;9.256;2023-08-21T14:48:17;34.00;99.90
435;DHT22;204;48.942;9.256;2023-08-21T14:50:42;34.00;99.90
435;DHT22;204;48.942;9.256;2023-08-21T14:53:08;34.10;99.90
435;DHT22;204;48.942;9.256;2023-08-21T14:55:34;34.00;99.90
435;DHT22;204;48.942;9.256;2023-08-21T14:58:00;34.00;99.90
435;DHT22;204;48.942;9.256;2023-08-21T15:00:30;34.00;99.90
435;DHT22;204;48.942;9.256;2023-08-21T15:02:56;33.90;99.90
435;DHT22;204;48.942;9.256;2023-08-21T15:05:22;33.90;99.90
435;DHT22;204;48.942;9.256;2023-08-21T15:07:47;33.90;99.90
435;DHT22;204;48.942;9.256;2023-08-21T15:10:13;33.90;99.90
435;DHT22;204;48.942;9.256;2023-08-21T15:12:38;33.80;99.90
435;DHT22;204;48.942;9.256;2023-08-21T15:15:04;33.90;99.90
435;DHT22;204;48.942;9.256;2023-08-21T15:17:30;33.90;99.90
435;DHT22;204;48.942;9.256;2023-08-21T15:19:56;33.90;99.90
435;DHT22;204;48.942;9.256;2023-08-21T15:22:22;33.80;99.90
435;DHT22;204;48.942;9.256;2023-08-21T15:24:47;33.80;99.90
435;DHT22;204;48.942;9.256;2023-08-21T15:27:13;33.90;99.90
435;DHT22;204;48.942;9.256;2023-08-21T15:29:42;33.90;99.90
435;DHT22;204;48.942;9.256;2023-08-21T15:32:08;33.90;99.90
435;DHT22;204;48.942;9.256;2023-08-21T15:34:33;33.80;99.90
435;DHT22;204;48.942;9.256;2023-08-21T15:36:59;33.80;99.90
435;DHT22;204;48.942;9.256;2023-08-21T15:39:25;33.70;99.90
435;DHT22;204;48.942;9.256;2023-08-21T15:41:50;33.60;99.90
435;DHT22;204;48.942;9.256;2023-08-21T15:44:16;33.60;99.90
435;DHT22;204;48.942;9.256;2023-08-21T15:46:42;33.50;99.90
435;DHT22;204;48.942;9.256;2023-08-21T15:49:10;33.50;99.90
435;DHT22;204;48.942;9.256;2023-08-21T15:51:37;33.50;99.90
435;DHT22;204;48.942;9.256;2023-08-21T15:54:04;33.50;99.90
435;DHT22;204;48.942;9.256;2023-08-21T15:56:29;33.50;99.90
435;DHT22;204;48.942;9.256;2023-08-21T15:58:55;33.40;99.90
435;DHT22;204;48.942;9.256;2023-08-21T16:01:21;33.40;99.90
435;DHT22;204;48.942;9.256;2023-08-21T16:03:46;33.40;99.90
435;DHT22;204;48.942;9.256;2023-08-21T16:06:12;33.50;99.90
435;DHT22;204;48.942;9.256;2023-08-21T16:08:37;33.50;99.90
435;DHT22;204;48.942;9.256;2023-08-21T16:11:03;33.50;99.90
435;DHT22;204;48.942;9.256;2023-08-21T16:13:29;33.40;99.90
435;DHT22;204;48.942;9.256;2023-08-21T16:15:56;33.30;99.90
435;DHT22;204;48.942;9.256;2023-08-21T16:18:21;33.30;99.90
435;DHT22;204;48.942;9.256;2023-08-21T16:20:47;33.20;99.90
435;DHT22;204;48.942;9.256;2023-08-21T16:23:12;33.00;99.90
435;DHT22;204;48.942;9.256;2023-08-21T16:25:38;33.00;99.90
435;DHT22;204;48.942;9.256;2023-08-21T16:28:04;33.00;99.90
435;DHT22;204;48.942;9.256;2023-08-21T16:30:30;32.90;99.90
435;DHT22;204;48.942;9.256;2023-08-21T16:32:56;32.90;99.90
435;DHT22;204;48.942;9.256;2023-08-21T16:35:22;32.90;99.90
435;DHT22;204;48.942;9.256;2023-08-21T16:37:48;32.80;99.90
435;DHT22;204;48.942;9.256;2023-08-21T16:40:14;32.80;99.90
435;DHT22;204;48.942;9.256;2023-08-21T16:42:39;32.80;99.90
435;DHT22;204;48.942;9.256;2023-08-21T16:45:06;32.90;99.90
435;DHT22;204;48.942;9.256;2023-08-21T16:47:32;32.90;99.90